Allemand, Louisiana
Current Conditions -  °F | °C
As of 7:35 PM on Saturday 20 Dec 2014 (Local Time) from KHUM Reporting Station
Overcast Overcast  
Wind Chill: 10°   Ceiling: 800
Heat Index: 10°   Visibility: 7mi
Dew Point:   Wind: 10mph
Humidity: 94%   Direction: 10°N
Pressure: 30.15"   Gusts: NA
Location:  29.5867°N, 90.8252°W
Report Text: KHUM 210135Z AUTO 01009KT 7SM OVC008 10/09 A3015 RMK AO2 T01030093
Loading
Personal Weather Stations






























Interactive Weather Map New forecast layout! Learn more

10-Day Weather Forecast

Advertisements
Track Severe Weather on mobile